createdAt,value
2023-02-04T00:00:23.399Z,12.40
2023-02-04T00:02:50.934Z,12.90
2023-02-04T00:05:19.240Z,13.53
2023-02-04T00:07:46.334Z,13.27
2023-02-04T00:10:13.505Z,12.33
2023-02-04T00:12:40.481Z,11.77
2023-02-04T00:15:08.494Z,12.10
2023-02-04T00:17:35.701Z,10.60
2023-02-04T00:20:02.949Z,12.60
2023-02-04T00:22:30.182Z,12.90
2023-02-04T00:24:57.382Z,11.00
2023-02-04T00:27:24.452Z,11.50
2023-02-04T00:29:51.583Z,11.93
2023-02-04T00:32:18.691Z,10.07
2023-02-04T00:34:46.014Z,10.40
2023-02-04T00:37:13.039Z,12.00
2023-02-04T00:39:40.341Z,11.30
2023-02-04T00:42:08.017Z,10.87
2023-02-04T00:44:37.020Z,9.93
2023-02-04T00:47:04.687Z,8.10
2023-02-04T00:49:33.360Z,9.43
2023-02-04T00:52:00.692Z,9.90
2023-02-04T00:54:28.217Z,8.27
2023-02-04T00:56:55.307Z,8.73
2023-02-04T00:59:22.636Z,8.77
2023-02-04T01:01:49.805Z,8.80
2023-02-04T01:04:16.824Z,8.80
2023-02-04T01:06:44.391Z,9.03
2023-02-04T01:09:12.301Z,8.87
2023-02-04T01:11:39.417Z,8.90
2023-02-04T01:14:06.576Z,8.00
2023-02-04T01:16:33.842Z,9.17
2023-02-04T01:19:01.167Z,8.33
2023-02-04T01:21:28.370Z,8.90
2023-02-04T01:23:55.553Z,7.90
2023-02-04T01:26:22.664Z,8.43
2023-02-04T01:28:50.049Z,8.43
2023-02-04T01:31:17.936Z,8.03
2023-02-04T01:33:45.378Z,7.27
2023-02-04T01:36:12.674Z,7.77
2023-02-04T01:38:39.888Z,7.33
2023-02-04T01:41:07.471Z,6.73
2023-02-04T01:43:34.835Z,6.33
2023-02-04T01:46:04.710Z,6.57
2023-02-04T01:48:31.833Z,6.40
2023-02-04T01:51:07.681Z,6.10
2023-02-04T01:53:36.092Z,6.13
2023-02-04T01:56:11.554Z,6.57
2023-02-04T01:58:38.651Z,6.20
2023-02-04T02:01:16.595Z,6.07
2023-02-04T02:03:43.807Z,6.20
2023-02-04T02:06:11.311Z,6.30
2023-02-04T02:08:38.541Z,5.37
2023-02-04T02:11:06.013Z,6.23
2023-02-04T02:13:33.245Z,6.20
2023-02-04T02:16:00.398Z,7.30
2023-02-04T02:18:27.597Z,7.17
2023-02-04T02:20:55.297Z,7.60
2023-02-04T02:23:46.944Z,9.27
2023-02-04T02:26:16.417Z,8.87
2023-02-04T02:28:44.058Z,9.27
2023-02-04T02:31:12.016Z,8.13
2023-02-04T02:33:39.227Z,8.13
2023-02-04T02:36:07.197Z,5.70
2023-02-04T02:38:34.451Z,5.87
2023-02-04T02:41:02.062Z,5.63
2023-02-04T02:43:29.782Z,5.43
2023-02-04T02:46:02.025Z,4.40
2023-02-04T02:48:29.310Z,4.10
2023-02-04T02:50:56.444Z,2.97
2023-02-04T02:53:23.633Z,2.80
2023-02-04T02:55:51.516Z,3.00
2023-02-04T02:58:34.488Z,2.50
2023-02-04T03:01:05.166Z,2.53
2023-02-04T03:03:40.099Z,2.17
2023-02-04T03:06:17.650Z,2.40
2023-02-04T03:08:45.459Z,2.40
2023-02-04T03:11:12.492Z,2.90
2023-02-04T03:13:40.251Z,3.00
2023-02-04T03:16:08.292Z,3.00
2023-02-04T03:18:36.668Z,3.27
2023-02-04T03:21:05.862Z,3.20
2023-02-04T03:23:35.215Z,3.73
2023-02-04T03:26:04.734Z,3.30
2023-02-04T03:28:32.970Z,3.40
2023-02-04T03:31:00.370Z,3.33
2023-02-04T03:33:31.986Z,4.00
2023-02-04T03:35:59.493Z,3.87
2023-02-04T03:38:26.935Z,4.20
2023-02-04T03:40:54.203Z,4.00
2023-02-04T03:43:21.213Z,4.07
2023-02-04T03:45:48.380Z,4.57
2023-02-04T03:48:15.479Z,4.33
2023-02-04T03:50:42.780Z,4.50
2023-02-04T03:53:10.341Z,4.43
2023-02-04T03:55:37.846Z,5.03
2023-02-04T03:58:05.582Z,4.90
2023-02-04T04:00:33.249Z,4.00
2023-02-04T04:03:00.799Z,3.60
2023-02-04T04:05:28.815Z,3.30
2023-02-04T04:07:56.254Z,3.40
2023-02-04T04:10:23.393Z,3.90
2023-02-04T04:12:50.467Z,4.00
2023-02-04T04:15:17.887Z,4.27
2023-02-04T04:17:45.131Z,4.73
2023-02-04T04:20:12.820Z,5.70
2023-02-04T04:22:40.300Z,5.40
2023-02-04T04:25:08.215Z,6.00
2023-02-04T04:27:35.270Z,4.97
2023-02-04T04:30:03.349Z,5.27
2023-02-04T04:32:30.360Z,4.53
2023-02-04T04:34:57.421Z,3.27
2023-02-04T04:37:24.450Z,2.40
2023-02-04T04:39:51.572Z,2.17
2023-02-04T04:42:18.590Z,3.10
2023-02-04T04:44:45.734Z,4.50
2023-02-04T04:47:12.810Z,5.70
2023-02-04T04:49:40.008Z,7.23
2023-02-04T04:52:06.907Z,8.10
2023-02-04T04:54:34.368Z,8.40
2023-02-04T04:57:01.422Z,9.10
2023-02-04T04:59:28.660Z,9.87
2023-02-04T05:01:55.832Z,10.10
2023-02-04T05:04:22.999Z,10.50
2023-02-04T05:06:50.074Z,10.80
2023-02-04T05:09:17.595Z,10.20
2023-02-04T05:11:44.749Z,9.73
2023-02-04T05:14:11.828Z,9.33
2023-02-04T05:16:38.878Z,9.40
2023-02-04T05:19:06.375Z,8.77
2023-02-04T05:21:33.434Z,6.63
2023-02-04T05:24:00.597Z,7.70
2023-02-04T05:26:30.863Z,8.63
2023-02-04T05:29:01.651Z,8.43
2023-02-04T05:31:29.260Z,8.77
2023-02-04T05:33:56.459Z,8.87
2023-02-04T05:36:23.583Z,8.97
2023-02-04T05:38:50.599Z,7.90
2023-02-04T05:41:17.783Z,8.20
2023-02-04T05:43:44.976Z,7.73
2023-02-04T05:46:12.357Z,7.50
2023-02-04T05:48:40.422Z,7.80
2023-02-04T05:51:07.699Z,7.40
2023-02-04T05:53:34.886Z,7.67
2023-02-04T05:56:02.145Z,7.40
2023-02-04T05:58:33.666Z,7.33
2023-02-04T06:01:02.344Z,7.73
2023-02-04T06:03:30.736Z,5.87
2023-02-04T06:05:58.268Z,5.50
2023-02-04T06:08:25.278Z,5.80
2023-02-04T06:10:52.498Z,6.80
2023-02-04T06:13:19.715Z,6.67
2023-02-04T06:15:47.008Z,6.37
2023-02-04T06:18:14.226Z,5.97
2023-02-04T06:20:41.302Z,5.67
2023-02-04T06:23:08.513Z,5.73
2023-02-04T06:25:36.066Z,5.97
2023-02-04T06:28:03.229Z,5.77
2023-02-04T06:30:31.041Z,6.20
2023-02-04T06:32:58.811Z,6.40
2023-02-04T06:35:25.924Z,5.83
2023-02-04T06:37:52.920Z,5.87
2023-02-04T06:40:20.050Z,5.37
2023-02-04T06:42:47.045Z,6.00
2023-02-04T06:45:14.102Z,5.83
2023-02-04T06:47:41.293Z,5.30
2023-02-04T06:50:08.902Z,5.17
2023-02-04T06:52:36.234Z,4.90
2023-02-04T06:55:03.388Z,4.37
2023-02-04T06:57:30.559Z,4.63
2023-02-04T06:59:57.633Z,4.80
2023-02-04T07:02:24.706Z,5.13
2023-02-04T07:04:51.914Z,3.63
2023-02-04T07:07:19.051Z,4.23
2023-02-04T07:09:46.192Z,4.90
2023-02-04T07:12:14.794Z,4.47
2023-02-04T07:14:43.028Z,5.07
2023-02-04T07:17:10.307Z,4.90
2023-02-04T07:19:37.494Z,5.30
2023-02-04T07:22:04.983Z,4.60
2023-02-04T07:24:32.088Z,4.23
2023-02-04T07:27:01.255Z,4.87
2023-02-04T07:29:30.556Z,5.23
2023-02-04T07:31:57.722Z,5.70
2023-02-04T07:34:25.003Z,5.10
2023-02-04T07:36:52.133Z,5.40
2023-02-04T07:39:19.393Z,5.20
2023-02-04T07:41:46.485Z,5.80
2023-02-04T07:44:15.785Z,5.57
2023-02-04T07:46:42.970Z,6.27
2023-02-04T07:49:10.150Z,5.03
2023-02-04T07:51:37.389Z,5.53
2023-02-04T07:54:04.468Z,6.07
2023-02-04T07:56:31.584Z,6.10
2023-02-04T07:58:58.615Z,5.60
2023-02-04T08:01:25.736Z,4.97
2023-02-04T08:03:52.967Z,5.57
2023-02-04T08:06:19.960Z,5.00
2023-02-04T08:08:47.184Z,4.40
2023-02-04T08:11:14.279Z,4.67
2023-02-04T08:13:41.387Z,4.60
2023-02-04T08:16:09.139Z,5.10
2023-02-04T08:18:37.107Z,4.97
2023-02-04T08:21:05.661Z,4.90
2023-02-04T08:23:33.483Z,5.00
2023-02-04T08:26:00.644Z,5.10
2023-02-04T08:28:27.939Z,4.90
2023-02-04T08:30:56.160Z,4.60
2023-02-04T08:33:23.613Z,4.73
2023-02-04T08:35:50.965Z,4.73
2023-02-04T08:38:18.028Z,4.73
2023-02-04T08:40:45.387Z,4.60
2023-02-04T08:43:12.652Z,4.37
2023-02-04T08:45:40.529Z,4.50
2023-02-04T08:48:09.543Z,4.43
2023-02-04T08:50:38.966Z,4.70
2023-02-04T08:53:06.356Z,4.77
2023-02-04T08:55:33.423Z,4.40
2023-02-04T08:58:01.507Z,4.53
2023-02-04T09:00:28.903Z,4.40
2023-02-04T09:02:56.057Z,4.57
2023-02-04T09:05:23.187Z,4.57
2023-02-04T09:07:52.996Z,4.60
2023-02-04T09:10:20.122Z,4.87
2023-02-04T09:12:47.178Z,4.87
2023-02-04T09:15:14.320Z,4.27
2023-02-04T09:17:43.970Z,5.13
2023-02-04T09:20:11.719Z,4.67
2023-02-04T09:22:38.964Z,4.60
2023-02-04T09:25:06.587Z,4.47
2023-02-04T09:27:33.672Z,4.63
2023-02-04T09:30:00.908Z,4.57
2023-02-04T09:32:28.000Z,4.90
2023-02-04T09:34:55.029Z,4.90
2023-02-04T09:37:22.115Z,4.63
2023-02-04T09:39:49.311Z,4.80
2023-02-04T09:42:16.944Z,4.77
2023-02-04T09:44:45.573Z,4.25
2023-02-04T09:47:15.712Z,4.60
2023-02-04T09:49:46.997Z,4.83
2023-02-04T09:52:17.032Z,4.73
2023-02-04T09:54:44.638Z,4.80
2023-02-04T09:57:18.920Z,5.00
2023-02-04T09:59:46.754Z,4.90
2023-02-04T10:02:27.187Z,4.70
2023-02-04T10:04:57.966Z,5.60
2023-02-04T10:07:26.828Z,6.10
2023-02-04T10:09:54.932Z,6.03
2023-02-04T10:12:22.389Z,5.60
2023-02-04T10:14:49.857Z,6.23
2023-02-04T10:17:22.061Z,5.93
2023-02-04T10:19:49.966Z,6.30
2023-02-04T10:22:22.379Z,6.57
2023-02-04T10:24:49.725Z,6.60
2023-02-04T10:27:16.732Z,6.50
2023-02-04T10:29:56.676Z,6.60
2023-02-04T10:32:33.311Z,6.40
2023-02-04T10:35:02.198Z,5.97
2023-02-04T10:37:30.815Z,5.30
2023-02-04T10:39:58.393Z,5.93
2023-02-04T10:42:30.635Z,5.80
2023-02-04T10:44:58.420Z,5.70
2023-02-04T10:47:30.714Z,5.67
2023-02-04T10:50:06.373Z,5.20
2023-02-04T10:52:45.888Z,4.43
2023-02-04T10:55:18.670Z,3.57
2023-02-04T10:57:48.538Z,3.57
2023-02-04T11:00:26.092Z,3.80
2023-02-04T11:02:53.162Z,3.80
2023-02-04T11:05:23.565Z,4.00
2023-02-04T11:07:51.269Z,3.37
2023-02-04T11:10:24.764Z,3.67
2023-02-04T11:12:54.909Z,3.60
2023-02-04T11:16:15.587Z,4.17
2023-02-04T11:18:46.432Z,4.20
2023-02-04T11:21:36.730Z,3.37
2023-02-04T11:24:23.223Z,3.20
2023-02-04T11:27:06.405Z,2.87
2023-02-04T11:29:38.277Z,3.07
2023-02-04T11:32:27.526Z,3.70
2023-02-04T11:34:57.350Z,4.20
2023-02-04T11:37:38.013Z,4.10
2023-02-04T11:40:32.324Z,4.00
2023-02-04T11:43:02.491Z,4.13
2023-02-04T11:45:34.181Z,3.93
2023-02-04T11:48:10.203Z,4.60
2023-02-04T11:50:41.717Z,5.00
2023-02-04T11:53:12.110Z,5.03
2023-02-04T11:55:47.588Z,5.10
2023-02-04T11:58:17.833Z,4.70
2023-02-04T12:00:45.778Z,4.90
2023-02-04T12:03:24.606Z,4.90
2023-02-04T12:05:54.970Z,4.83
2023-02-04T12:08:21.915Z,4.37
2023-02-04T12:11:00.321Z,4.63
2023-02-04T12:13:30.570Z,4.00
2023-02-04T12:16:06.604Z,4.20
2023-02-04T12:18:35.505Z,3.77
2023-02-04T12:21:04.467Z,4.17
2023-02-04T12:23:31.737Z,3.73
2023-02-04T12:25:58.987Z,3.80
2023-02-04T12:28:28.072Z,3.20
2023-02-04T12:30:55.940Z,3.10
2023-02-04T12:33:23.351Z,2.77
2023-02-04T12:35:53.883Z,2.27
2023-02-04T12:38:21.772Z,2.60
2023-02-04T12:40:48.712Z,2.30
2023-02-04T12:43:15.744Z,2.30
2023-02-04T12:45:45.816Z,2.00
2023-02-04T12:48:14.024Z,1.90
2023-02-04T12:50:41.573Z,2.20
2023-02-04T12:53:09.010Z,2.30
2023-02-04T12:55:36.588Z,1.87
2023-02-04T12:58:03.831Z,1.90
2023-02-04T13:00:31.064Z,2.27
2023-02-04T13:03:00.761Z,2.00
2023-02-04T13:05:28.169Z,1.97
2023-02-04T13:07:55.358Z,2.10
2023-02-04T13:10:24.018Z,2.23
2023-02-04T13:12:51.920Z,2.37
2023-02-04T13:15:19.107Z,2.30
2023-02-04T13:17:46.274Z,2.70
2023-02-04T13:20:13.640Z,2.30
2023-02-04T13:22:40.857Z,2.10
2023-02-04T13:25:07.954Z,2.47
2023-02-04T13:27:35.031Z,2.10
2023-02-04T13:30:02.146Z,2.23
2023-02-04T13:32:29.125Z,2.20
2023-02-04T13:34:56.146Z,2.13
2023-02-04T13:37:23.266Z,2.00
2023-02-04T13:39:50.214Z,2.43
2023-02-04T13:42:20.089Z,2.00
2023-02-04T13:44:47.453Z,2.10
2023-02-04T13:47:14.570Z,2.00
2023-02-04T13:49:41.689Z,2.30
2023-02-04T13:52:08.854Z,1.90
2023-02-04T13:54:36.850Z,2.10
2023-02-04T13:57:05.416Z,2.00
2023-02-04T13:59:32.646Z,2.50
2023-02-04T14:01:59.819Z,2.60
2023-02-04T14:04:27.220Z,2.10
2023-02-04T14:06:55.486Z,2.10
2023-02-04T14:09:23.199Z,2.23
2023-02-04T14:11:50.475Z,2.30
2023-02-04T14:14:17.715Z,2.50
2023-02-04T14:16:44.940Z,2.20
2023-02-04T14:19:12.929Z,2.47
2023-02-04T14:21:39.924Z,2.33
2023-02-04T14:24:07.197Z,2.53
2023-02-04T14:26:34.527Z,2.77
2023-02-04T14:29:02.283Z,3.00
2023-02-04T14:31:29.391Z,2.97
2023-02-04T14:33:56.768Z,3.17
2023-02-04T14:36:23.910Z,2.90
2023-02-04T14:38:50.920Z,2.80
2023-02-04T14:41:20.161Z,3.80
2023-02-04T14:43:47.639Z,3.10
2023-02-04T14:46:14.797Z,3.07
2023-02-04T14:48:41.853Z,2.90
2023-02-04T14:51:09.056Z,3.10
2023-02-04T14:53:36.135Z,3.40
2023-02-04T14:56:03.570Z,3.17
2023-02-04T14:58:30.654Z,3.63
2023-02-04T15:00:57.849Z,3.37
2023-02-04T15:03:24.903Z,3.07
2023-02-04T15:05:52.028Z,3.50
2023-02-04T15:08:19.212Z,3.20
2023-02-04T15:10:46.368Z,3.50
2023-02-04T15:13:14.016Z,3.20
2023-02-04T15:15:41.176Z,3.17
2023-02-04T15:18:08.333Z,3.53
2023-02-04T15:20:35.899Z,3.10
2023-02-04T15:23:03.157Z,3.60
2023-02-04T15:25:30.263Z,3.33
2023-02-04T15:27:57.533Z,3.17
2023-02-04T15:30:24.744Z,3.10
2023-02-04T15:32:51.777Z,2.80
2023-02-04T15:35:19.754Z,2.67
2023-02-04T15:37:46.849Z,3.27
2023-02-04T15:40:14.316Z,3.20
2023-02-04T15:42:41.663Z,3.07
2023-02-04T15:45:09.198Z,3.10
2023-02-04T15:47:36.670Z,3.53
2023-02-04T15:50:06.706Z,3.50
2023-02-04T15:52:33.897Z,5.33
2023-02-04T15:55:01.026Z,3.30
2023-02-04T15:57:28.059Z,3.77
2023-02-04T15:59:58.343Z,3.57
2023-02-04T16:02:25.597Z,3.97
2023-02-04T16:04:52.783Z,4.10
2023-02-04T16:07:19.941Z,3.73
2023-02-04T16:09:47.117Z,4.00
2023-02-04T16:12:14.106Z,4.47
2023-02-04T16:14:41.236Z,4.80
2023-02-04T16:17:09.809Z,4.80
2023-02-04T16:19:36.869Z,4.77
2023-02-04T16:22:06.053Z,4.87
2023-02-04T16:24:34.013Z,4.80
2023-02-04T16:27:01.076Z,4.70
2023-02-04T16:29:28.206Z,5.00
2023-02-04T16:31:57.205Z,5.10
2023-02-04T16:34:24.854Z,5.07
2023-02-04T16:36:52.177Z,5.17
2023-02-04T16:39:19.334Z,5.30
2023-02-04T16:41:46.489Z,4.73
2023-02-04T16:44:13.791Z,5.47
2023-02-04T16:46:40.934Z,5.53
2023-02-04T16:49:11.482Z,5.60
2023-02-04T16:51:38.803Z,5.20
2023-02-04T16:54:06.162Z,5.20
2023-02-04T16:56:36.137Z,9.43
2023-02-04T16:59:03.752Z,5.77
2023-02-04T17:01:31.336Z,5.83
2023-02-04T17:03:58.498Z,6.13
2023-02-04T17:06:32.237Z,5.80
2023-02-04T17:08:59.888Z,6.70
2023-02-04T17:11:30.069Z,6.00
2023-02-04T17:14:02.938Z,6.23
2023-02-04T17:16:30.975Z,6.33
2023-02-04T17:18:57.998Z,6.30
2023-02-04T17:21:26.816Z,6.27
2023-02-04T17:23:55.424Z,5.77
2023-02-04T17:26:24.305Z,5.87
2023-02-04T17:28:51.564Z,5.93
2023-02-04T17:31:18.858Z,5.70
2023-02-04T17:33:47.491Z,6.03
2023-02-04T17:36:15.417Z,6.10
2023-02-04T17:38:42.546Z,5.83
2023-02-04T17:41:09.733Z,5.90
2023-02-04T17:43:37.381Z,6.63
2023-02-04T17:46:04.736Z,7.33
2023-02-04T17:48:32.092Z,6.90
2023-02-04T17:50:59.264Z,7.83
2023-02-04T17:53:26.488Z,7.90
2023-02-04T17:55:53.664Z,8.90
2023-02-04T17:58:24.183Z,9.17
2023-02-04T18:00:52.948Z,9.40
2023-02-04T18:03:22.681Z,9.70
2023-02-04T18:05:52.631Z,9.37
2023-02-04T18:08:22.025Z,10.13
2023-02-04T18:10:51.057Z,10.40
2023-02-04T18:13:23.979Z,11.50
2023-02-04T18:16:00.300Z,11.57
2023-02-04T18:18:37.391Z,11.97
2023-02-04T18:21:24.689Z,12.20
2023-02-04T18:24:27.191Z,13.00
2023-02-04T18:26:56.452Z,13.17
2023-02-04T18:29:26.643Z,14.63
2023-02-04T18:32:02.321Z,13.93
2023-02-04T18:34:38.717Z,14.53
2023-02-04T18:37:24.676Z,15.07
2023-02-04T18:39:53.376Z,14.93
2023-02-04T18:42:25.737Z,15.50
2023-02-04T18:44:55.107Z,15.77
2023-02-04T18:47:35.948Z,16.57
2023-02-04T18:50:18.681Z,15.83
2023-02-04T18:52:46.460Z,14.07
2023-02-04T18:55:38.351Z,13.73
2023-02-04T18:58:17.924Z,13.57
2023-02-04T19:00:55.883Z,12.20
2023-02-04T19:03:42.161Z,11.63
2023-02-04T19:06:31.707Z,11.83
2023-02-04T19:09:22.742Z,10.70
2023-02-04T19:12:01.003Z,10.30
2023-02-04T19:14:41.486Z,8.90
2023-02-04T19:17:14.695Z,8.13
2023-02-04T19:19:57.760Z,7.63
2023-02-04T19:22:50.650Z,6.83
2023-02-04T19:25:37.065Z,6.67
2023-02-04T19:28:27.872Z,5.83
2023-02-04T19:31:03.264Z,6.27
2023-02-04T19:33:45.490Z,5.77
2023-02-04T19:36:21.380Z,5.40
2023-02-04T19:38:52.921Z,5.33
2023-02-04T19:41:45.221Z,5.43
2023-02-04T19:44:15.131Z,5.87
2023-02-04T19:46:43.442Z,5.00
2023-02-04T19:49:24.930Z,4.90
2023-02-04T19:51:54.732Z,4.90
2023-02-04T19:54:25.216Z,4.77
2023-02-04T19:56:54.826Z,4.90
2023-02-04T19:59:31.509Z,5.33
2023-02-04T20:02:07.756Z,5.00
2023-02-04T20:04:42.831Z,5.10
2023-02-04T20:07:20.312Z,4.47
2023-02-04T20:09:47.707Z,5.53
2023-02-04T20:12:18.409Z,4.70
2023-02-04T20:14:56.761Z,5.10
2023-02-04T20:17:40.181Z,4.40
2023-02-04T20:20:19.511Z,4.27
2023-02-04T20:22:59.406Z,4.80
2023-02-04T20:25:40.388Z,4.90
2023-02-04T20:28:17.957Z,5.00
2023-02-04T20:30:45.899Z,5.30
2023-02-04T20:33:48.749Z,5.10
2023-02-04T20:36:15.757Z,5.17
2023-02-04T20:38:42.977Z,5.60
2023-02-04T20:41:22.421Z,5.03
2023-02-04T20:43:50.357Z,4.83
2023-02-04T20:46:24.463Z,4.77
2023-02-04T20:48:51.704Z,5.20
2023-02-04T20:51:24.654Z,5.23
2023-02-04T20:53:53.031Z,5.10
2023-02-04T20:56:27.679Z,5.53
2023-02-04T20:59:11.997Z,6.03
2023-02-04T21:01:44.818Z,5.30
2023-02-04T21:04:17.967Z,5.40
2023-02-04T21:06:45.479Z,5.93
2023-02-04T21:09:27.080Z,4.90
2023-02-04T21:11:58.681Z,5.83
2023-02-04T21:14:27.368Z,5.53
2023-02-04T21:16:55.245Z,5.77
2023-02-04T21:19:24.725Z,5.80
2023-02-04T21:21:52.538Z,6.07
2023-02-04T21:24:19.820Z,6.60
2023-02-04T21:26:46.932Z,6.30
2023-02-04T21:29:14.487Z,5.77
2023-02-04T21:31:41.869Z,5.90
2023-02-04T21:34:09.141Z,6.00
2023-02-04T21:36:36.277Z,6.03
2023-02-04T21:39:03.423Z,6.60
2023-02-04T21:41:30.626Z,6.90
2023-02-04T21:43:57.878Z,6.60
2023-02-04T21:46:25.201Z,6.93
2023-02-04T21:48:52.328Z,7.33
2023-02-04T21:51:19.542Z,6.97
2023-02-04T21:53:46.800Z,7.40
2023-02-04T21:56:14.546Z,6.90
2023-02-04T21:58:41.615Z,7.20
2023-02-04T22:01:10.538Z,7.70
2023-02-04T22:03:37.585Z,7.53
2023-02-04T22:06:04.884Z,7.30
2023-02-04T22:08:32.062Z,7.67
2023-02-04T22:10:59.191Z,7.63
2023-02-04T22:13:26.346Z,7.70
2023-02-04T22:15:53.493Z,7.97
2023-02-04T22:18:20.941Z,6.90
2023-02-04T22:20:48.190Z,6.10
2023-02-04T22:23:16.615Z,5.87
2023-02-04T22:25:43.769Z,5.27
2023-02-04T22:28:10.909Z,5.37
2023-02-04T22:30:38.252Z,5.27
2023-02-04T22:33:05.843Z,4.77
2023-02-04T22:35:35.640Z,4.40
2023-02-04T22:38:03.442Z,4.30
2023-02-04T22:40:30.626Z,4.03
2023-02-04T22:42:57.662Z,4.10
2023-02-04T22:45:24.804Z,4.33
2023-02-04T22:47:51.902Z,4.23
2023-02-04T22:50:19.222Z,4.10
2023-02-04T22:52:46.352Z,4.50
2023-02-04T22:55:13.750Z,4.20
2023-02-04T22:57:40.754Z,4.20
2023-02-04T23:00:09.584Z,4.40
2023-02-04T23:02:36.961Z,4.20
2023-02-04T23:05:04.944Z,4.10
2023-02-04T23:07:32.738Z,4.67
2023-02-04T23:10:00.075Z,4.60
2023-02-04T23:12:27.209Z,4.20
2023-02-04T23:14:54.179Z,4.27
2023-02-04T23:17:21.442Z,4.97
2023-02-04T23:19:48.437Z,4.67
2023-02-04T23:22:17.323Z,5.40
2023-02-04T23:24:44.992Z,5.47
2023-02-04T23:27:12.347Z,4.83
2023-02-04T23:29:40.438Z,5.00
2023-02-04T23:32:08.906Z,4.43
2023-02-04T23:34:36.771Z,4.10
2023-02-04T23:37:04.134Z,4.40
2023-02-04T23:39:31.398Z,3.33
2023-02-04T23:41:58.487Z,3.30
2023-02-04T23:44:26.064Z,3.43
2023-02-04T23:46:53.285Z,3.73
2023-02-04T23:49:20.420Z,3.30
2023-02-04T23:51:47.513Z,3.00
2023-02-04T23:54:14.877Z,3.00
2023-02-04T23:56:42.050Z,2.93
2023-02-04T23:59:09.215Z,3.10
